DMCML EDVK-ZZZZ

Flight info

Callsign DMCML
Flight time N/A
Altitude 5500
Route RANIN GOESSENHEIM
Aircraft TL30/L-SDGRY/S

Departure

Time 2026-05-06 16:54
Airport Kassel Airport (EDVK)

Arrival

Time N/A
Airport ZZZZ
Time Latitude Longitude Altitude Speed Heading
2026-05-06 16:32 51.41751 9.39516 839 ft 0 kts 275°
2026-05-06 16:48 51.41759 9.39501 835 ft 6 kts 355°
2026-05-06 16:48 51.41789 9.39577 839 ft 11 kts 78°
2026-05-06 16:49 51.41775 9.39722 839 ft 15 kts 97°
2026-05-06 16:49 51.41803 9.39770 839 ft 9 kts 15°
2026-05-06 16:49 51.41876 9.39793 840 ft 12 kts 43°
2026-05-06 16:49 51.41880 9.39954 835 ft 19 kts 95°
2026-05-06 16:50 51.41867 9.40178 837 ft 13 kts 93°
2026-05-06 16:50 51.41924 9.40252 835 ft 12 kts 316°
2026-05-06 16:50 51.41928 9.40247 835 ft 0 kts 307°
2026-05-06 16:53 51.41967 9.40154 835 ft 15 kts 302°
2026-05-06 16:53 51.42022 9.39979 836 ft 18 kts 290°
2026-05-06 16:53 51.42056 9.39651 841 ft 57 kts 276°
2026-05-06 16:54 51.42105 9.38920 1075 ft 69 kts 278°
2026-05-06 16:54 51.42120 9.38128 1366 ft 74 kts 273°
2026-05-06 16:54 51.42022 9.37309 1651 ft 80 kts 232°
2026-05-06 16:54 51.41514 9.36873 1948 ft 84 kts 212°
2026-05-06 16:55 51.41048 9.36343 2235 ft 78 kts 211°
2026-05-06 16:55 51.40614 9.35857 2488 ft 80 kts 212°
2026-05-06 16:55 51.40062 9.35253 2512 ft 108 kts 211°
2026-05-06 16:55 51.39395 9.34526 2513 ft 119 kts 211°
2026-05-06 16:56 51.38706 9.33782 2510 ft 122 kts 211°
2026-05-06 16:56 51.38098 9.32820 2507 ft 127 kts 248°
2026-05-06 16:56 51.37984 9.31448 2507 ft 122 kts 268°
2026-05-06 16:56 51.37888 9.30090 2502 ft 122 kts 265°
2026-05-06 16:57 51.37792 9.28731 2502 ft 124 kts 266°
2026-05-06 16:57 51.37701 9.27363 2508 ft 124 kts 266°
2026-05-06 16:57 51.37604 9.25982 2509 ft 125 kts 265°
2026-05-06 16:57 51.37248 9.24779 2512 ft 121 kts 214°
2026-05-06 16:58 51.36531 9.24616 2780 ft 98 kts 167°
2026-05-06 16:58 51.35873 9.24657 3045 ft 91 kts 173°
2026-05-06 16:58 51.35270 9.24701 3300 ft 80 kts 165°
2026-05-06 16:58 51.34745 9.24806 3562 ft 73 kts 166°
2026-05-06 16:59 51.34244 9.24890 3828 ft 72 kts 167°
2026-05-06 16:59 51.33755 9.24977 4100 ft 69 kts 165°
2026-05-06 16:59 51.33261 9.25079 4304 ft 74 kts 166°
2026-05-06 16:59 51.32737 9.25189 4493 ft 80 kts 166°
2026-05-06 17:00 51.32156 9.25324 4635 ft 88 kts 167°
2026-05-06 17:00 51.31540 9.25486 4765 ft 91 kts 166°
2026-05-06 17:00 51.30908 9.25657 4900 ft 93 kts 166°
2026-05-06 17:00 51.30276 9.25835 5022 ft 93 kts 167°
2026-05-06 17:01 51.29631 9.26020 5150 ft 95 kts 167°
2026-05-06 17:01 51.28984 9.26201 5279 ft 95 kts 166°
2026-05-06 17:01 51.28336 9.26399 5402 ft 95 kts 167°
2026-05-06 17:01 51.27687 9.26600 5502 ft 98 kts 167°
2026-05-06 17:02 51.26999 9.26819 5509 ft 103 kts 167°
2026-05-06 17:02 51.26287 9.27045 5511 ft 106 kts 167°
2026-05-06 17:02 51.25559 9.27278 5509 ft 107 kts 166°
2026-05-06 17:02 51.24824 9.27516 5513 ft 108 kts 166°
2026-05-06 17:03 51.24088 9.27753 5509 ft 107 kts 167°
2026-05-06 17:03 51.23356 9.27987 5508 ft 108 kts 167°
2026-05-06 17:03 51.22621 9.28225 5511 ft 107 kts 167°
2026-05-06 17:03 51.21887 9.28464 5508 ft 108 kts 167°
2026-05-06 17:04 51.21152 9.28702 5508 ft 107 kts 167°
2026-05-06 17:04 51.20421 9.28942 5509 ft 107 kts 166°
2026-05-06 17:04 51.19691 9.29184 5507 ft 107 kts 166°
2026-05-06 17:04 51.19054 9.29399 5508 ft 107 kts 167°
2026-05-06 17:05 51.18325 9.29646 5508 ft 107 kts 166°
2026-05-06 17:05 51.17594 9.29897 5506 ft 108 kts 167°
2026-05-06 17:05 51.16861 9.30146 5505 ft 108 kts 167°
2026-05-06 17:05 51.16132 9.30398 5507 ft 107 kts 166°
2026-05-06 17:06 51.15408 9.30649 5506 ft 106 kts 167°
2026-05-06 17:06 51.14682 9.30901 5511 ft 107 kts 167°
2026-05-06 17:06 51.13946 9.31157 5508 ft 110 kts 167°
2026-05-06 17:06 51.13196 9.31415 5507 ft 111 kts 167°
2026-05-06 17:07 51.12434 9.31693 5508 ft 114 kts 167°
2026-05-06 17:07 51.11643 9.31985 5510 ft 119 kts 166°
2026-05-06 17:07 51.10830 9.32288 5502 ft 119 kts 167°
2026-05-06 17:07 51.10025 9.32320 5500 ft 118 kts 202°
2026-05-06 17:08 51.09336 9.31602 5498 ft 118 kts 202°
2026-05-06 17:08 51.08551 9.31337 5500 ft 118 kts 186°
2026-05-06 17:08 51.07752 9.31129 5493 ft 114 kts 188°
2026-05-06 17:08 51.06974 9.30936 5481 ft 112 kts 187°
2026-05-06 17:09 51.06210 9.30754 5493 ft 109 kts 187°
2026-05-06 17:09 51.05460 9.30576 5492 ft 109 kts 187°
2026-05-06 17:09 51.04711 9.30399 5492 ft 108 kts 187°
2026-05-06 17:09 51.03963 9.30223 5496 ft 109 kts 187°
2026-05-06 17:10 51.03212 9.30049 5499 ft 110 kts 187°
2026-05-06 17:10 51.02449 9.29876 5502 ft 112 kts 188°
2026-05-06 17:10 51.01674 9.29685 5503 ft 113 kts 187°
2026-05-06 17:10 51.00899 9.29506 5501 ft 111 kts 187°
2026-05-06 17:11 51.00145 9.29337 5501 ft 110 kts 187°
2026-05-06 17:11 50.99389 9.29160 5499 ft 110 kts 188°
2026-05-06 17:11 50.98630 9.28981 5497 ft 110 kts 188°
2026-05-06 17:11 50.97874 9.28803 5500 ft 109 kts 188°
2026-05-06 17:12 50.97124 9.28622 5496 ft 109 kts 188°
2026-05-06 17:12 50.96377 9.28445 5490 ft 108 kts 188°
2026-05-06 17:12 50.95635 9.28272 5498 ft 108 kts 188°
2026-05-06 17:12 50.94890 9.28099 5499 ft 108 kts 188°
2026-05-06 17:13 50.94147 9.27928 5501 ft 108 kts 188°
2026-05-06 17:13 50.93401 9.27761 5500 ft 108 kts 185°
2026-05-06 17:13 50.92678 9.28023 5493 ft 108 kts 158°
2026-05-06 17:13 50.91972 9.28443 5492 ft 109 kts 162°
2026-05-06 17:14 50.91261 9.28834 5496 ft 110 kts 162°
2026-05-06 17:14 50.90544 9.29232 5492 ft 109 kts 162°
2026-05-06 17:14 50.89828 9.29632 5485 ft 109 kts 161°
2026-05-06 17:14 50.89111 9.30033 5489 ft 109 kts 162°
2026-05-06 17:15 50.88393 9.30433 5489 ft 110 kts 162°
2026-05-06 17:15 50.87673 9.30836 5490 ft 110 kts 162°
2026-05-06 17:15 50.86952 9.31237 5490 ft 110 kts 162°
2026-05-06 17:15 50.86233 9.31636 5501 ft 109 kts 162°
2026-05-06 17:16 50.85518 9.32037 5491 ft 109 kts 162°
2026-05-06 17:16 50.84806 9.32434 5490 ft 110 kts 162°
2026-05-06 17:16 50.84087 9.32833 5486 ft 109 kts 162°
2026-05-06 17:16 50.83373 9.33231 5489 ft 109 kts 162°
2026-05-06 17:17 50.82656 9.33630 5496 ft 109 kts 162°
2026-05-06 17:17 50.81937 9.34030 5499 ft 109 kts 162°
2026-05-06 17:17 50.81220 9.34428 5489 ft 109 kts 162°
2026-05-06 17:17 50.80505 9.34824 5495 ft 109 kts 162°
2026-05-06 17:18 50.79792 9.35221 5496 ft 109 kts 162°
2026-05-06 17:18 50.79078 9.35619 5495 ft 109 kts 162°
2026-05-06 17:18 50.78362 9.36017 5490 ft 110 kts 162°
2026-05-06 17:18 50.77884 9.36282 5493 ft 110 kts 162°
2026-05-06 17:19 50.76923 9.36814 5490 ft 110 kts 162°
2026-05-06 17:19 50.76201 9.37216 5491 ft 110 kts 163°
2026-05-06 17:19 50.75479 9.37615 5485 ft 110 kts 163°
2026-05-06 17:19 50.75002 9.37880 5481 ft 109 kts 163°
2026-05-06 17:20 50.74285 9.38277 5490 ft 109 kts 163°
2026-05-06 17:20 50.73571 9.38674 5479 ft 108 kts 163°
2026-05-06 17:20 50.72857 9.39071 5483 ft 109 kts 163°
2026-05-06 17:20 50.72137 9.39469 5484 ft 110 kts 163°
2026-05-06 17:21 50.71417 9.39868 5486 ft 110 kts 163°
2026-05-06 17:21 50.70693 9.40267 5486 ft 110 kts 163°
2026-05-06 17:21 50.69972 9.40665 5484 ft 109 kts 163°
2026-05-06 17:21 50.69255 9.41061 5481 ft 109 kts 163°
2026-05-06 17:22 50.68539 9.41459 5491 ft 110 kts 163°
2026-05-06 17:22 50.67814 9.41858 5493 ft 110 kts 163°
2026-05-06 17:22 50.67093 9.42257 5494 ft 110 kts 163°
2026-05-06 17:22 50.66374 9.42654 5500 ft 110 kts 163°
2026-05-06 17:23 50.65653 9.43055 5493 ft 110 kts 163°
2026-05-06 17:23 50.64928 9.43458 5495 ft 111 kts 163°
2026-05-06 17:23 50.64210 9.43853 5490 ft 111 kts 163°
2026-05-06 17:23 50.63474 9.44258 5495 ft 111 kts 164°
2026-05-06 17:24 50.62760 9.44652 5489 ft 110 kts 164°
2026-05-06 17:24 50.62031 9.45055 5484 ft 110 kts 164°
2026-05-06 17:24 50.61312 9.45452 5476 ft 111 kts 164°
2026-05-06 17:24 50.60588 9.45849 5481 ft 110 kts 164°
2026-05-06 17:25 50.59860 9.46248 5491 ft 111 kts 165°
2026-05-06 17:25 50.59138 9.46644 5482 ft 109 kts 164°
2026-05-06 17:25 50.58419 9.47042 5483 ft 110 kts 164°
2026-05-06 17:25 50.57697 9.47438 5494 ft 110 kts 164°
2026-05-06 17:26 50.56981 9.47834 5490 ft 109 kts 164°
2026-05-06 17:26 50.56261 9.48229 5492 ft 110 kts 164°
2026-05-06 17:26 50.55533 9.48629 5491 ft 111 kts 165°
2026-05-06 17:26 50.54809 9.49027 5490 ft 110 kts 165°
2026-05-06 17:27 50.54087 9.49424 5490 ft 110 kts 165°
2026-05-06 17:27 50.53370 9.49817 5489 ft 109 kts 165°
2026-05-06 17:27 50.52648 9.50214 5484 ft 110 kts 164°
2026-05-06 17:27 50.51934 9.50606 5500 ft 111 kts 165°
2026-05-06 17:28 50.51205 9.51006 5491 ft 110 kts 165°
2026-05-06 17:28 50.50488 9.51400 5490 ft 109 kts 165°
2026-05-06 17:28 50.49767 9.51796 5496 ft 110 kts 165°
2026-05-06 17:28 50.49042 9.52193 5483 ft 110 kts 165°
2026-05-06 17:29 50.48325 9.52586 5479 ft 109 kts 165°
2026-05-06 17:29 50.47611 9.52976 5486 ft 109 kts 165°
2026-05-06 17:29 50.46894 9.53370 5484 ft 109 kts 165°
2026-05-06 17:29 50.46169 9.53767 5488 ft 111 kts 166°
2026-05-06 17:30 50.45441 9.54160 5484 ft 109 kts 165°
2026-05-06 17:30 50.44726 9.54565 5489 ft 108 kts 165°
2026-05-06 17:30 50.44021 9.54944 5491 ft 109 kts 165°
2026-05-06 17:30 50.43288 9.55341 5493 ft 110 kts 166°
2026-05-06 17:31 50.42562 9.55740 5486 ft 111 kts 165°
2026-05-06 17:31 50.41842 9.56137 5488 ft 111 kts 165°
2026-05-06 17:31 50.41110 9.56535 5479 ft 110 kts 166°
2026-05-06 17:31 50.40389 9.56927 5485 ft 109 kts 166°
2026-05-06 17:32 50.39671 9.57314 5492 ft 109 kts 166°
2026-05-06 17:32 50.38951 9.57706 5493 ft 110 kts 166°
2026-05-06 17:32 50.38225 9.58104 5495 ft 111 kts 166°
2026-05-06 17:32 50.37494 9.58502 5484 ft 111 kts 166°
2026-05-06 17:33 50.36765 9.58899 5493 ft 111 kts 166°
2026-05-06 17:33 50.36047 9.59292 5493 ft 110 kts 165°
2026-05-06 17:33 50.35325 9.59688 5481 ft 110 kts 166°
2026-05-06 17:33 50.34597 9.60085 5489 ft 111 kts 165°
2026-05-06 17:34 50.33863 9.60484 5490 ft 112 kts 165°
2026-05-06 17:34 50.33131 9.60883 5496 ft 111 kts 165°
2026-05-06 17:34 50.32406 9.61276 5495 ft 111 kts 165°
2026-05-06 17:34 50.31675 9.61675 5486 ft 111 kts 165°
2026-05-06 17:35 50.30973 9.62056 5484 ft 111 kts 165°
2026-05-06 17:35 50.30218 9.62467 5489 ft 110 kts 165°
2026-05-06 17:35 50.29494 9.62862 5493 ft 111 kts 165°
2026-05-06 17:36 50.28047 9.63645 5489 ft 110 kts 165°
2026-05-06 17:36 50.27323 9.64038 5491 ft 110 kts 165°
2026-05-06 17:36 50.26594 9.64433 5487 ft 111 kts 165°
2026-05-06 17:36 50.25868 9.64828 5489 ft 110 kts 165°
2026-05-06 17:37 50.25142 9.65223 5492 ft 110 kts 165°
2026-05-06 17:37 50.24418 9.65616 5487 ft 111 kts 165°
2026-05-06 17:37 50.23670 9.66019 5296 ft 123 kts 165°
2026-05-06 17:37 50.22879 9.66440 4852 ft 117 kts 165°
2026-05-06 17:38 50.22120 9.66851 4448 ft 114 kts 165°
2026-05-06 17:38 50.21370 9.67259 4068 ft 116 kts 165°
2026-05-06 17:38 50.20603 9.67677 3691 ft 118 kts 166°
2026-05-06 17:38 50.19825 9.68099 3313 ft 118 kts 166°
2026-05-06 17:39 50.19054 9.68522 2994 ft 115 kts 166°
2026-05-06 17:39 50.18345 9.68910 2986 ft 110 kts 167°
2026-05-06 17:39 50.17601 9.69301 2982 ft 114 kts 167°
2026-05-06 17:39 50.16849 9.69708 2979 ft 114 kts 167°
2026-05-06 17:40 50.16100 9.70117 2976 ft 113 kts 167°
2026-05-06 17:40 50.15354 9.70519 2976 ft 113 kts 167°
2026-05-06 17:40 50.14602 9.70927 2985 ft 115 kts 167°
2026-05-06 17:40 50.13837 9.71334 2927 ft 120 kts 166°
2026-05-06 17:41 50.13030 9.71767 2801 ft 124 kts 166°
2026-05-06 17:41 50.12210 9.72210 2676 ft 125 kts 166°
2026-05-06 17:41 50.11398 9.72648 2549 ft 125 kts 165°
2026-05-06 17:41 50.10570 9.73099 2432 ft 128 kts 166°
2026-05-06 17:42 50.09721 9.73552 2302 ft 129 kts 166°
2026-05-06 17:42 50.08873 9.74004 2180 ft 129 kts 166°
2026-05-06 17:42 50.08020 9.74464 2049 ft 129 kts 166°
2026-05-06 17:42 50.07177 9.74846 1917 ft 125 kts 171°
2026-05-06 17:43 50.06322 9.75076 1799 ft 124 kts 174°
2026-05-06 17:43 50.05492 9.75285 1790 ft 118 kts 174°
2026-05-06 17:43 50.04707 9.75501 1785 ft 101 kts 174°
2026-05-06 17:43 50.04136 9.75690 1772 ft 72 kts 174°
2026-05-06 17:44 50.03643 9.75869 1773 ft 74 kts 173°
2026-05-06 17:44 50.03137 9.76051 1779 ft 75 kts 174°
2026-05-06 17:44 50.02616 9.76222 1776 ft 78 kts 174°
2026-05-06 17:44 50.02090 9.76395 1776 ft 76 kts 173°
2026-05-06 17:45 50.01581 9.76557 1775 ft 74 kts 174°
2026-05-06 17:45 50.01117 9.76773 1660 ft 70 kts 148°
2026-05-06 17:45 50.00923 9.77460 1467 ft 75 kts 88°
2026-05-06 17:45 50.01099 9.78188 1314 ft 73 kts 56°
2026-05-06 17:46 50.01386 9.78800 1205 ft 68 kts 35°
2026-05-06 17:46 50.01830 9.79095 1129 ft 70 kts
2026-05-06 17:46 50.02234 9.78891 1093 ft 56 kts 317°
2026-05-06 17:46 50.02528 9.78446 872 ft 62 kts 297°
2026-05-06 17:47 50.02695 9.77836 731 ft 58 kts 288°
2026-05-06 17:47 50.02796 9.77351 742 ft 37 kts 283°
2026-05-06 17:47 50.02847 9.77100 758 ft 8 kts 263°
2026-05-06 17:47 50.02839 9.77081 760 ft 0 kts 230°
2026-05-06 17:48 50.02838 9.77071 758 ft 2 kts 297°
2026-05-06 17:48 50.02840 9.77063 759 ft 0 kts 303°